sensor_id;sensor_type;location;lat;lon;timestamp;temperature;humidity
15113;DHT22;7657;50.140;7.076;2022-12-20T00:01:07;7.90;99.90
15113;DHT22;7657;50.140;7.076;2022-12-20T00:03:36;7.90;99.90
15113;DHT22;7657;50.140;7.076;2022-12-20T00:06:03;7.80;99.90
15113;DHT22;7657;50.140;7.076;2022-12-20T00:08:31;7.80;99.90
15113;DHT22;7657;50.140;7.076;2022-12-20T00:11:00;7.80;99.90
15113;DHT22;7657;50.140;7.076;2022-12-20T00:13:28;7.80;99.90
15113;DHT22;7657;50.140;7.076;2022-12-20T00:16:06;7.80;99.90
15113;DHT22;7657;50.140;7.076;2022-12-20T00:18:33;7.80;99.90
15113;DHT22;7657;50.140;7.076;2022-12-20T00:21:03;7.80;99.90
15113;DHT22;7657;50.140;7.076;2022-12-20T00:23:31;7.80;99.90
15113;DHT22;7657;50.140;7.076;2022-12-20T00:26:03;7.80;99.90
15113;DHT22;7657;50.140;7.076;2022-12-20T00:28:31;7.80;99.90
15113;DHT22;7657;50.140;7.076;2022-12-20T00:30:58;7.80;99.90
15113;DHT22;7657;50.140;7.076;2022-12-20T00:33:25;7.80;99.90
15113;DHT22;7657;50.140;7.076;2022-12-20T00:35:53;7.80;99.90
15113;DHT22;7657;50.140;7.076;2022-12-20T00:38:22;7.80;99.90
15113;DHT22;7657;50.140;7.076;2022-12-20T00:40:58;7.80;99.90
15113;DHT22;7657;50.140;7.076;2022-12-20T00:43:25;7.70;99.90
15113;DHT22;7657;50.140;7.076;2022-12-20T00:45:52;7.70;99.90
15113;DHT22;7657;50.140;7.076;2022-12-20T00:48:19;7.70;99.90
15113;DHT22;7657;50.140;7.076;2022-12-20T00:50:46;7.70;99.90
15113;DHT22;7657;50.140;7.076;2022-12-20T00:53:13;7.70;99.90
15113;DHT22;7657;50.140;7.076;2022-12-20T00:55:42;7.60;99.90
15113;DHT22;7657;50.140;7.076;2022-12-20T00:58:09;7.60;99.90
15113;DHT22;7657;50.140;7.076;2022-12-20T01:00:36;7.60;99.90
15113;DHT22;7657;50.140;7.076;2022-12-20T01:03:04;7.60;99.90
15113;DHT22;7657;50.140;7.076;2022-12-20T01:05:31;7.60;99.90
15113;DHT22;7657;50.140;7.076;2022-12-20T01:07:58;7.60;99.90
15113;DHT22;7657;50.140;7.076;2022-12-20T01:10:25;7.60;99.90
15113;DHT22;7657;50.140;7.076;2022-12-20T01:12:54;7.60;99.90
15113;DHT22;7657;50.140;7.076;2022-12-20T01:15:21;7.60;99.90
15113;DHT22;7657;50.140;7.076;2022-12-20T01:17:48;7.60;99.90
15113;DHT22;7657;50.140;7.076;2022-12-20T01:20:16;7.50;99.90
15113;DHT22;7657;50.140;7.076;2022-12-20T01:22:43;7.50;99.90
15113;DHT22;7657;50.140;7.076;2022-12-20T01:25:09;7.60;99.90
15113;DHT22;7657;50.140;7.076;2022-12-20T01:27:36;7.60;99.90
15113;DHT22;7657;50.140;7.076;2022-12-20T01:30:06;7.60;99.90
15113;DHT22;7657;50.140;7.076;2022-12-20T01:32:33;7.60;99.90
15113;DHT22;7657;50.140;7.076;2022-12-20T01:35:00;7.50;99.90
15113;DHT22;7657;50.140;7.076;2022-12-20T01:37:26;7.50;99.90
15113;DHT22;7657;50.140;7.076;2022-12-20T01:39:54;7.60;99.90
15113;DHT22;7657;50.140;7.076;2022-12-20T01:42:21;7.50;99.90
15113;DHT22;7657;50.140;7.076;2022-12-20T01:44:58;7.60;99.90
15113;DHT22;7657;50.140;7.076;2022-12-20T01:47:29;7.60;99.90
15113;DHT22;7657;50.140;7.076;2022-12-20T01:49:59;7.50;99.90
15113;DHT22;7657;50.140;7.076;2022-12-20T01:52:33;7.50;99.90
15113;DHT22;7657;50.140;7.076;2022-12-20T01:55:04;7.50;99.90
15113;DHT22;7657;50.140;7.076;2022-12-20T01:57:37;7.50;99.90
15113;DHT22;7657;50.140;7.076;2022-12-20T02:00:06;7.50;99.90
15113;DHT22;7657;50.140;7.076;2022-12-20T02:02:35;7.50;99.90
15113;DHT22;7657;50.140;7.076;2022-12-20T02:05:03;7.50;99.90
15113;DHT22;7657;50.140;7.076;2022-12-20T02:07:33;7.50;99.90
15113;DHT22;7657;50.140;7.076;2022-12-20T02:10:01;7.50;99.90
15113;DHT22;7657;50.140;7.076;2022-12-20T02:12:31;7.50;99.90
15113;DHT22;7657;50.140;7.076;2022-12-20T02:15:08;7.50;99.90
15113;DHT22;7657;50.140;7.076;2022-12-20T02:17:51;7.50;99.90
15113;DHT22;7657;50.140;7.076;2022-12-20T02:20:56;7.50;99.90
15113;DHT22;7657;50.140;7.076;2022-12-20T02:23:45;7.50;99.90
15113;DHT22;7657;50.140;7.076;2022-12-20T02:26:37;7.50;99.90
15113;DHT22;7657;50.140;7.076;2022-12-20T02:29:18;7.40;99.90
15113;DHT22;7657;50.140;7.076;2022-12-20T02:31:52;7.40;99.90
15113;DHT22;7657;50.140;7.076;2022-12-20T02:34:21;7.40;99.90
15113;DHT22;7657;50.140;7.076;2022-12-20T02:36:49;7.40;99.90
15113;DHT22;7657;50.140;7.076;2022-12-20T02:39:16;7.40;99.90
15113;DHT22;7657;50.140;7.076;2022-12-20T02:41:48;7.40;99.90
15113;DHT22;7657;50.140;7.076;2022-12-20T02:44:18;7.50;99.90
15113;DHT22;7657;50.140;7.076;2022-12-20T02:47:08;7.50;99.90
15113;DHT22;7657;50.140;7.076;2022-12-20T02:49:38;7.50;99.90
15113;DHT22;7657;50.140;7.076;2022-12-20T02:52:07;7.50;99.90
15113;DHT22;7657;50.140;7.076;2022-12-20T02:54:35;7.50;99.90
15113;DHT22;7657;50.140;7.076;2022-12-20T02:57:07;7.50;99.90
15113;DHT22;7657;50.140;7.076;2022-12-20T02:59:40;7.50;99.90
15113;DHT22;7657;50.140;7.076;2022-12-20T03:02:10;7.60;99.90
15113;DHT22;7657;50.140;7.076;2022-12-20T03:04:38;7.60;99.90
15113;DHT22;7657;50.140;7.076;2022-12-20T03:07:08;7.60;99.90
15113;DHT22;7657;50.140;7.076;2022-12-20T03:09:37;7.50;99.90
15113;DHT22;7657;50.140;7.076;2022-12-20T03:12:05;7.60;99.90
15113;DHT22;7657;50.140;7.076;2022-12-20T03:14:32;7.60;99.90
15113;DHT22;7657;50.140;7.076;2022-12-20T03:16:59;7.60;99.90
15113;DHT22;7657;50.140;7.076;2022-12-20T03:19:27;7.60;99.90
15113;DHT22;7657;50.140;7.076;2022-12-20T03:21:54;7.60;99.90
15113;DHT22;7657;50.140;7.076;2022-12-20T03:24:21;7.60;99.90
15113;DHT22;7657;50.140;7.076;2022-12-20T03:26:48;7.60;99.90
15113;DHT22;7657;50.140;7.076;2022-12-20T03:29:15;7.60;99.90
15113;DHT22;7657;50.140;7.076;2022-12-20T03:31:41;7.60;99.90
15113;DHT22;7657;50.140;7.076;2022-12-20T03:34:08;7.70;99.90
15113;DHT22;7657;50.140;7.076;2022-12-20T03:36:37;7.70;99.90
15113;DHT22;7657;50.140;7.076;2022-12-20T03:39:04;7.70;99.90
15113;DHT22;7657;50.140;7.076;2022-12-20T03:41:30;7.70;99.90
15113;DHT22;7657;50.140;7.076;2022-12-20T03:43:57;7.70;99.90
15113;DHT22;7657;50.140;7.076;2022-12-20T03:46:24;7.70;99.90
15113;DHT22;7657;50.140;7.076;2022-12-20T03:48:52;7.70;99.90
15113;DHT22;7657;50.140;7.076;2022-12-20T03:51:19;7.70;99.90
15113;DHT22;7657;50.140;7.076;2022-12-20T03:53:47;7.70;99.90
15113;DHT22;7657;50.140;7.076;2022-12-20T03:56:14;7.70;99.90
15113;DHT22;7657;50.140;7.076;2022-12-20T03:58:41;7.70;99.90
15113;DHT22;7657;50.140;7.076;2022-12-20T04:01:19;7.70;99.90
15113;DHT22;7657;50.140;7.076;2022-12-20T04:03:47;7.70;99.90
15113;DHT22;7657;50.140;7.076;2022-12-20T04:06:13;7.70;99.90
15113;DHT22;7657;50.140;7.076;2022-12-20T04:08:41;7.80;99.90
15113;DHT22;7657;50.140;7.076;2022-12-20T04:11:09;7.80;99.90
15113;DHT22;7657;50.140;7.076;2022-12-20T04:13:41;7.80;99.90
15113;DHT22;7657;50.140;7.076;2022-12-20T04:16:10;7.70;99.90
15113;DHT22;7657;50.140;7.076;2022-12-20T04:18:37;7.80;99.90
15113;DHT22;7657;50.140;7.076;2022-12-20T04:21:04;7.70;99.90
15113;DHT22;7657;50.140;7.076;2022-12-20T04:23:32;7.70;99.90
15113;DHT22;7657;50.140;7.076;2022-12-20T04:26:00;7.70;99.90
15113;DHT22;7657;50.140;7.076;2022-12-20T04:28:28;7.70;99.90
15113;DHT22;7657;50.140;7.076;2022-12-20T04:30:56;7.80;99.90
15113;DHT22;7657;50.140;7.076;2022-12-20T04:33:23;7.80;99.90
15113;DHT22;7657;50.140;7.076;2022-12-20T04:35:50;7.80;99.90
15113;DHT22;7657;50.140;7.076;2022-12-20T04:38:17;7.80;99.90
15113;DHT22;7657;50.140;7.076;2022-12-20T04:40:45;7.80;99.90
15113;DHT22;7657;50.140;7.076;2022-12-20T04:43:13;7.80;99.90
15113;DHT22;7657;50.140;7.076;2022-12-20T04:45:41;7.80;99.90
15113;DHT22;7657;50.140;7.076;2022-12-20T04:48:09;7.80;99.90
15113;DHT22;7657;50.140;7.076;2022-12-20T04:50:36;7.80;99.90
15113;DHT22;7657;50.140;7.076;2022-12-20T04:53:03;7.80;99.90
15113;DHT22;7657;50.140;7.076;2022-12-20T04:55:47;7.90;99.90
15113;DHT22;7657;50.140;7.076;2022-12-20T04:58:14;7.80;99.90
15113;DHT22;7657;50.140;7.076;2022-12-20T05:00:42;7.80;99.90
15113;DHT22;7657;50.140;7.076;2022-12-20T05:03:09;7.80;99.90
15113;DHT22;7657;50.140;7.076;2022-12-20T05:05:36;7.80;99.90
15113;DHT22;7657;50.140;7.076;2022-12-20T05:08:03;7.90;99.90
15113;DHT22;7657;50.140;7.076;2022-12-20T05:10:30;7.90;99.90
15113;DHT22;7657;50.140;7.076;2022-12-20T05:12:57;7.90;99.90
15113;DHT22;7657;50.140;7.076;2022-12-20T05:15:23;7.90;99.90
15113;DHT22;7657;50.140;7.076;2022-12-20T05:17:52;7.90;99.90
15113;DHT22;7657;50.140;7.076;2022-12-20T05:20:24;7.90;99.90
15113;DHT22;7657;50.140;7.076;2022-12-20T05:22:50;8.00;99.90
15113;DHT22;7657;50.140;7.076;2022-12-20T05:25:37;8.00;99.90
15113;DHT22;7657;50.140;7.076;2022-12-20T05:28:22;8.00;99.90
15113;DHT22;7657;50.140;7.076;2022-12-20T05:30:49;8.00;99.90
15113;DHT22;7657;50.140;7.076;2022-12-20T05:33:17;8.00;99.90
15113;DHT22;7657;50.140;7.076;2022-12-20T05:35:44;8.10;99.90
15113;DHT22;7657;50.140;7.076;2022-12-20T05:38:11;8.10;99.90
15113;DHT22;7657;50.140;7.076;2022-12-20T05:40:38;8.10;99.90
15113;DHT22;7657;50.140;7.076;2022-12-20T05:43:05;8.10;99.90
15113;DHT22;7657;50.140;7.076;2022-12-20T05:45:32;8.10;99.90
15113;DHT22;7657;50.140;7.076;2022-12-20T05:48:00;8.10;99.90
15113;DHT22;7657;50.140;7.076;2022-12-20T05:50:28;8.10;99.90
15113;DHT22;7657;50.140;7.076;2022-12-20T05:52:55;8.10;99.90
15113;DHT22;7657;50.140;7.076;2022-12-20T05:55:22;8.10;99.90
15113;DHT22;7657;50.140;7.076;2022-12-20T05:57:49;8.10;99.90
15113;DHT22;7657;50.140;7.076;2022-12-20T06:00:16;8.20;99.90
15113;DHT22;7657;50.140;7.076;2022-12-20T06:02:43;8.10;99.90
15113;DHT22;7657;50.140;7.076;2022-12-20T06:05:10;8.20;99.90
15113;DHT22;7657;50.140;7.076;2022-12-20T06:07:38;8.10;99.90
15113;DHT22;7657;50.140;7.076;2022-12-20T06:10:06;8.20;99.90
15113;DHT22;7657;50.140;7.076;2022-12-20T06:12:33;8.20;99.90
15113;DHT22;7657;50.140;7.076;2022-12-20T06:15:00;8.20;99.90
15113;DHT22;7657;50.140;7.076;2022-12-20T06:17:27;8.20;99.90
15113;DHT22;7657;50.140;7.076;2022-12-20T06:19:54;8.20;99.90
15113;DHT22;7657;50.140;7.076;2022-12-20T06:22:21;8.20;99.90
15113;DHT22;7657;50.140;7.076;2022-12-20T06:24:49;8.20;99.90
15113;DHT22;7657;50.140;7.076;2022-12-20T06:27:16;8.20;99.90
15113;DHT22;7657;50.140;7.076;2022-12-20T06:29:46;8.20;99.90
15113;DHT22;7657;50.140;7.076;2022-12-20T06:32:16;8.20;99.90
15113;DHT22;7657;50.140;7.076;2022-12-20T06:34:43;8.20;99.90
15113;DHT22;7657;50.140;7.076;2022-12-20T06:37:11;8.20;99.90
15113;DHT22;7657;50.140;7.076;2022-12-20T06:39:38;8.20;99.90
15113;DHT22;7657;50.140;7.076;2022-12-20T06:42:06;8.20;99.90
15113;DHT22;7657;50.140;7.076;2022-12-20T06:44:33;8.30;99.90
15113;DHT22;7657;50.140;7.076;2022-12-20T06:47:01;8.30;99.90
15113;DHT22;7657;50.140;7.076;2022-12-20T06:49:28;8.30;99.90
15113;DHT22;7657;50.140;7.076;2022-12-20T06:51:54;8.30;99.90
15113;DHT22;7657;50.140;7.076;2022-12-20T06:54:21;8.30;99.90
15113;DHT22;7657;50.140;7.076;2022-12-20T06:56:48;8.30;99.90
15113;DHT22;7657;50.140;7.076;2022-12-20T06:59:17;8.30;99.90
15113;DHT22;7657;50.140;7.076;2022-12-20T07:01:43;8.30;99.90
15113;DHT22;7657;50.140;7.076;2022-12-20T07:04:10;8.30;99.90
15113;DHT22;7657;50.140;7.076;2022-12-20T07:06:37;8.20;99.90
15113;DHT22;7657;50.140;7.076;2022-12-20T07:09:04;8.30;99.90
15113;DHT22;7657;50.140;7.076;2022-12-20T07:11:31;8.30;99.90
15113;DHT22;7657;50.140;7.076;2022-12-20T07:13:58;8.30;99.90
15113;DHT22;7657;50.140;7.076;2022-12-20T07:16:26;8.30;99.90
15113;DHT22;7657;50.140;7.076;2022-12-20T07:18:53;8.30;99.90
15113;DHT22;7657;50.140;7.076;2022-12-20T07:21:20;8.30;99.90
15113;DHT22;7657;50.140;7.076;2022-12-20T07:23:47;8.30;99.90
15113;DHT22;7657;50.140;7.076;2022-12-20T07:26:14;8.30;99.90
15113;DHT22;7657;50.140;7.076;2022-12-20T07:28:42;8.40;99.90
15113;DHT22;7657;50.140;7.076;2022-12-20T07:31:09;8.30;99.90
15113;DHT22;7657;50.140;7.076;2022-12-20T07:33:38;8.30;99.90
15113;DHT22;7657;50.140;7.076;2022-12-20T07:36:07;8.30;99.90
15113;DHT22;7657;50.140;7.076;2022-12-20T07:38:35;8.30;99.90
15113;DHT22;7657;50.140;7.076;2022-12-20T07:41:06;8.40;99.90
15113;DHT22;7657;50.140;7.076;2022-12-20T07:43:33;8.30;99.90
15113;DHT22;7657;50.140;7.076;2022-12-20T07:46:00;8.30;99.90
15113;DHT22;7657;50.140;7.076;2022-12-20T07:48:27;8.30;99.90
15113;DHT22;7657;50.140;7.076;2022-12-20T07:51:00;8.40;99.90
15113;DHT22;7657;50.140;7.076;2022-12-20T07:53:30;8.30;99.90
15113;DHT22;7657;50.140;7.076;2022-12-20T07:56:00;8.40;99.90
15113;DHT22;7657;50.140;7.076;2022-12-20T07:58:28;8.40;99.90
15113;DHT22;7657;50.140;7.076;2022-12-20T08:00:56;8.30;99.90
15113;DHT22;7657;50.140;7.076;2022-12-20T08:03:26;8.30;99.90
15113;DHT22;7657;50.140;7.076;2022-12-20T08:05:58;8.30;99.90
15113;DHT22;7657;50.140;7.076;2022-12-20T08:08:28;8.30;99.90
15113;DHT22;7657;50.140;7.076;2022-12-20T08:10:55;8.20;99.90
15113;DHT22;7657;50.140;7.076;2022-12-20T08:13:22;8.30;99.90
15113;DHT22;7657;50.140;7.076;2022-12-20T08:15:50;8.30;99.90
15113;DHT22;7657;50.140;7.076;2022-12-20T08:18:16;8.30;99.90
15113;DHT22;7657;50.140;7.076;2022-12-20T08:20:43;8.30;99.90
15113;DHT22;7657;50.140;7.076;2022-12-20T08:23:12;8.30;99.90
15113;DHT22;7657;50.140;7.076;2022-12-20T08:25:38;8.40;99.90
15113;DHT22;7657;50.140;7.076;2022-12-20T08:28:05;8.40;99.90
15113;DHT22;7657;50.140;7.076;2022-12-20T08:30:32;8.40;99.90
15113;DHT22;7657;50.140;7.076;2022-12-20T08:32:59;8.50;99.90
15113;DHT22;7657;50.140;7.076;2022-12-20T08:35:26;8.50;99.90
15113;DHT22;7657;50.140;7.076;2022-12-20T08:37:53;8.60;99.90
15113;DHT22;7657;50.140;7.076;2022-12-20T08:40:21;8.60;99.90
15113;DHT22;7657;50.140;7.076;2022-12-20T08:42:48;8.60;99.90
15113;DHT22;7657;50.140;7.076;2022-12-20T08:45:15;8.60;99.90
15113;DHT22;7657;50.140;7.076;2022-12-20T08:47:43;8.60;99.90
15113;DHT22;7657;50.140;7.076;2022-12-20T08:50:10;8.60;99.90
15113;DHT22;7657;50.140;7.076;2022-12-20T08:52:38;8.60;99.90
15113;DHT22;7657;50.140;7.076;2022-12-20T08:55:06;8.70;99.90
15113;DHT22;7657;50.140;7.076;2022-12-20T08:57:34;8.70;99.90
15113;DHT22;7657;50.140;7.076;2022-12-20T09:00:02;8.70;99.90
15113;DHT22;7657;50.140;7.076;2022-12-20T09:02:29;8.70;99.90
15113;DHT22;7657;50.140;7.076;2022-12-20T09:04:56;8.70;99.90
15113;DHT22;7657;50.140;7.076;2022-12-20T09:07:23;8.80;99.90
15113;DHT22;7657;50.140;7.076;2022-12-20T09:09:50;8.80;99.90
15113;DHT22;7657;50.140;7.076;2022-12-20T09:12:17;8.80;99.90
15113;DHT22;7657;50.140;7.076;2022-12-20T09:14:45;8.80;99.90
15113;DHT22;7657;50.140;7.076;2022-12-20T09:17:12;8.80;99.90
15113;DHT22;7657;50.140;7.076;2022-12-20T09:19:39;8.80;99.90
15113;DHT22;7657;50.140;7.076;2022-12-20T09:22:06;8.90;99.90
15113;DHT22;7657;50.140;7.076;2022-12-20T09:24:33;8.90;99.90
15113;DHT22;7657;50.140;7.076;2022-12-20T09:27:00;8.90;99.90
15113;DHT22;7657;50.140;7.076;2022-12-20T09:29:26;8.90;99.90
15113;DHT22;7657;50.140;7.076;2022-12-20T09:31:55;8.90;99.90
15113;DHT22;7657;50.140;7.076;2022-12-20T09:34:22;8.90;99.90
15113;DHT22;7657;50.140;7.076;2022-12-20T09:36:48;8.90;99.90
15113;DHT22;7657;50.140;7.076;2022-12-20T09:39:15;8.90;99.90
15113;DHT22;7657;50.140;7.076;2022-12-20T09:41:43;9.00;99.90
15113;DHT22;7657;50.140;7.076;2022-12-20T09:44:14;8.90;99.90
15113;DHT22;7657;50.140;7.076;2022-12-20T09:46:42;8.90;99.90
15113;DHT22;7657;50.140;7.076;2022-12-20T09:49:14;9.00;99.90
15113;DHT22;7657;50.140;7.076;2022-12-20T09:51:57;9.00;99.90
15113;DHT22;7657;50.140;7.076;2022-12-20T09:54:32;9.00;99.90
15113;DHT22;7657;50.140;7.076;2022-12-20T09:57:08;8.90;99.90
15113;DHT22;7657;50.140;7.076;2022-12-20T09:59:39;8.90;99.90
15113;DHT22;7657;50.140;7.076;2022-12-20T10:02:09;8.90;99.90
15113;DHT22;7657;50.140;7.076;2022-12-20T10:04:38;8.90;99.90
15113;DHT22;7657;50.140;7.076;2022-12-20T10:07:17;8.90;99.90
15113;DHT22;7657;50.140;7.076;2022-12-20T10:10:13;8.90;99.90
15113;DHT22;7657;50.140;7.076;2022-12-20T10:12:48;8.90;99.90
15113;DHT22;7657;50.140;7.076;2022-12-20T10:15:21;8.90;99.90
15113;DHT22;7657;50.140;7.076;2022-12-20T10:18:09;8.90;99.90
15113;DHT22;7657;50.140;7.076;2022-12-20T10:20:50;8.90;99.90
15113;DHT22;7657;50.140;7.076;2022-12-20T10:23:21;8.90;99.90
15113;DHT22;7657;50.140;7.076;2022-12-20T10:25:56;8.90;99.90
15113;DHT22;7657;50.140;7.076;2022-12-20T10:28:27;8.90;99.90
15113;DHT22;7657;50.140;7.076;2022-12-20T10:30:58;8.90;99.90
15113;DHT22;7657;50.140;7.076;2022-12-20T10:33:27;9.00;99.90
15113;DHT22;7657;50.140;7.076;2022-12-20T10:36:18;9.00;99.90
15113;DHT22;7657;50.140;7.076;2022-12-20T10:38:48;9.10;99.90
15113;DHT22;7657;50.140;7.076;2022-12-20T10:41:17;9.10;99.90
15113;DHT22;7657;50.140;7.076;2022-12-20T10:43:46;9.10;99.90
15113;DHT22;7657;50.140;7.076;2022-12-20T10:46:15;9.20;99.90
15113;DHT22;7657;50.140;7.076;2022-12-20T10:48:43;9.30;99.90
15113;DHT22;7657;50.140;7.076;2022-12-20T10:51:16;9.30;99.90
15113;DHT22;7657;50.140;7.076;2022-12-20T10:53:56;9.30;99.90
15113;DHT22;7657;50.140;7.076;2022-12-20T10:56:25;9.30;99.90
15113;DHT22;7657;50.140;7.076;2022-12-20T10:58:55;9.40;99.90
15113;DHT22;7657;50.140;7.076;2022-12-20T11:01:26;9.40;99.90
15113;DHT22;7657;50.140;7.076;2022-12-20T11:03:57;9.40;99.90
15113;DHT22;7657;50.140;7.076;2022-12-20T11:06:27;9.40;99.90
15113;DHT22;7657;50.140;7.076;2022-12-20T11:09:24;9.50;99.90
15113;DHT22;7657;50.140;7.076;2022-12-20T11:12:03;9.50;99.90
15113;DHT22;7657;50.140;7.076;2022-12-20T11:14:32;9.60;99.90
15113;DHT22;7657;50.140;7.076;2022-12-20T11:17:04;9.60;99.90
15113;DHT22;7657;50.140;7.076;2022-12-20T11:22:42;9.60;99.90
15113;DHT22;7657;50.140;7.076;2022-12-20T11:25:39;9.60;99.90
15113;DHT22;7657;50.140;7.076;2022-12-20T11:28:23;9.70;99.90
15113;DHT22;7657;50.140;7.076;2022-12-20T11:30:58;9.70;99.90
15113;DHT22;7657;50.140;7.076;2022-12-20T11:33:50;9.70;99.90
15113;DHT22;7657;50.140;7.076;2022-12-20T11:36:26;9.80;99.90
15113;DHT22;7657;50.140;7.076;2022-12-20T11:39:04;9.80;99.90
15113;DHT22;7657;50.140;7.076;2022-12-20T11:41:40;9.90;99.90
15113;DHT22;7657;50.140;7.076;2022-12-20T11:44:15;9.90;99.90
15113;DHT22;7657;50.140;7.076;2022-12-20T11:47:03;10.00;99.90
15113;DHT22;7657;50.140;7.076;2022-12-20T11:49:46;10.00;99.90
15113;DHT22;7657;50.140;7.076;2022-12-20T11:52:25;9.90;99.90
15113;DHT22;7657;50.140;7.076;2022-12-20T11:55:04;10.00;99.90
15113;DHT22;7657;50.140;7.076;2022-12-20T11:57:41;10.00;99.90
15113;DHT22;7657;50.140;7.076;2022-12-20T12:00:12;9.90;99.90
15113;DHT22;7657;50.140;7.076;2022-12-20T12:02:44;9.90;99.90
15113;DHT22;7657;50.140;7.076;2022-12-20T12:05:19;10.00;99.90
15113;DHT22;7657;50.140;7.076;2022-12-20T12:07:52;10.00;99.90
15113;DHT22;7657;50.140;7.076;2022-12-20T12:10:22;10.00;99.90
15113;DHT22;7657;50.140;7.076;2022-12-20T12:12:56;10.00;99.90
15113;DHT22;7657;50.140;7.076;2022-12-20T12:15:28;10.10;99.90
15113;DHT22;7657;50.140;7.076;2022-12-20T12:17:59;10.10;99.90
15113;DHT22;7657;50.140;7.076;2022-12-20T12:20:32;10.10;99.90
15113;DHT22;7657;50.140;7.076;2022-12-20T12:23:04;10.20;99.90
15113;DHT22;7657;50.140;7.076;2022-12-20T12:25:32;10.20;99.90
15113;DHT22;7657;50.140;7.076;2022-12-20T12:28:00;10.30;99.90
15113;DHT22;7657;50.140;7.076;2022-12-20T12:30:29;10.30;99.90
15113;DHT22;7657;50.140;7.076;2022-12-20T12:33:05;10.40;99.90
15113;DHT22;7657;50.140;7.076;2022-12-20T12:35:55;10.40;99.90
15113;DHT22;7657;50.140;7.076;2022-12-20T12:38:49;10.50;99.90
15113;DHT22;7657;50.140;7.076;2022-12-20T12:44:40;10.50;99.90
15113;DHT22;7657;50.140;7.076;2022-12-20T12:47:19;10.50;99.90
15113;DHT22;7657;50.140;7.076;2022-12-20T12:49:49;10.50;99.90
15113;DHT22;7657;50.140;7.076;2022-12-20T12:52:40;10.50;99.90
15113;DHT22;7657;50.140;7.076;2022-12-20T12:55:35;10.50;99.90
15113;DHT22;7657;50.140;7.076;2022-12-20T12:58:14;10.50;99.90
15113;DHT22;7657;50.140;7.076;2022-12-20T13:00:49;10.40;99.90
15113;DHT22;7657;50.140;7.076;2022-12-20T13:03:36;10.40;99.90
15113;DHT22;7657;50.140;7.076;2022-12-20T13:09:20;10.40;99.90
15113;DHT22;7657;50.140;7.076;2022-12-20T13:11:48;10.40;99.90
15113;DHT22;7657;50.140;7.076;2022-12-20T13:14:46;10.40;99.90
15113;DHT22;7657;50.140;7.076;2022-12-20T13:17:48;10.40;99.90
15113;DHT22;7657;50.140;7.076;2022-12-20T13:20:18;10.40;99.90
15113;DHT22;7657;50.140;7.076;2022-12-20T13:23:14;10.40;99.90
15113;DHT22;7657;50.140;7.076;2022-12-20T13:25:44;10.40;99.90
15113;DHT22;7657;50.140;7.076;2022-12-20T13:28:44;10.40;99.90
15113;DHT22;7657;50.140;7.076;2022-12-20T13:31:31;10.40;99.90
15113;DHT22;7657;50.140;7.076;2022-12-20T13:34:01;10.40;99.90
15113;DHT22;7657;50.140;7.076;2022-12-20T13:36:31;10.40;99.90
15113;DHT22;7657;50.140;7.076;2022-12-20T13:38:59;10.40;99.90
15113;DHT22;7657;50.140;7.076;2022-12-20T13:41:43;10.40;99.90
15113;DHT22;7657;50.140;7.076;2022-12-20T13:44:34;10.40;99.90
15113;DHT22;7657;50.140;7.076;2022-12-20T13:47:11;10.40;99.90
15113;DHT22;7657;50.140;7.076;2022-12-20T13:49:43;10.40;99.90
15113;DHT22;7657;50.140;7.076;2022-12-20T13:52:23;10.50;99.90
15113;DHT22;7657;50.140;7.076;2022-12-20T13:54:53;10.40;99.90
15113;DHT22;7657;50.140;7.076;2022-12-20T13:57:27;10.50;99.90
15113;DHT22;7657;50.140;7.076;2022-12-20T13:59:56;10.40;99.90
15113;DHT22;7657;50.140;7.076;2022-12-20T14:02:25;10.40;99.90
15113;DHT22;7657;50.140;7.076;2022-12-20T14:04:58;10.40;99.90
15113;DHT22;7657;50.140;7.076;2022-12-20T14:07:27;10.40;99.90
15113;DHT22;7657;50.140;7.076;2022-12-20T14:09:57;10.30;99.90
15113;DHT22;7657;50.140;7.076;2022-12-20T14:12:24;10.30;99.90
15113;DHT22;7657;50.140;7.076;2022-12-20T14:14:52;10.30;99.90
15113;DHT22;7657;50.140;7.076;2022-12-20T14:17:23;10.20;99.90
15113;DHT22;7657;50.140;7.076;2022-12-20T14:20:14;10.20;99.90
15113;DHT22;7657;50.140;7.076;2022-12-20T14:22:46;10.20;99.90
15113;DHT22;7657;50.140;7.076;2022-12-20T14:25:26;10.20;99.90
15113;DHT22;7657;50.140;7.076;2022-12-20T14:27:55;10.30;99.90
15113;DHT22;7657;50.140;7.076;2022-12-20T14:30:34;10.30;99.90
15113;DHT22;7657;50.140;7.076;2022-12-20T14:33:02;10.30;99.90
15113;DHT22;7657;50.140;7.076;2022-12-20T14:35:30;10.30;99.90
15113;DHT22;7657;50.140;7.076;2022-12-20T14:37:59;10.30;99.90
15113;DHT22;7657;50.140;7.076;2022-12-20T14:40:28;10.30;99.90
15113;DHT22;7657;50.140;7.076;2022-12-20T14:42:55;10.30;99.90
15113;DHT22;7657;50.140;7.076;2022-12-20T14:45:24;10.30;99.90
15113;DHT22;7657;50.140;7.076;2022-12-20T14:47:58;10.30;99.90
15113;DHT22;7657;50.140;7.076;2022-12-20T14:50:30;10.30;99.90
15113;DHT22;7657;50.140;7.076;2022-12-20T14:52:59;10.30;99.90
15113;DHT22;7657;50.140;7.076;2022-12-20T14:55:31;10.30;99.90
15113;DHT22;7657;50.140;7.076;2022-12-20T14:57:59;10.30;99.90
15113;DHT22;7657;50.140;7.076;2022-12-20T15:00:27;10.30;99.90
15113;DHT22;7657;50.140;7.076;2022-12-20T15:03:00;10.30;99.90
15113;DHT22;7657;50.140;7.076;2022-12-20T15:05:48;10.20;99.90
15113;DHT22;7657;50.140;7.076;2022-12-20T15:08:18;10.20;99.90
15113;DHT22;7657;50.140;7.076;2022-12-20T15:11:07;10.20;99.90
15113;DHT22;7657;50.140;7.076;2022-12-20T15:13:39;10.20;99.90
15113;DHT22;7657;50.140;7.076;2022-12-20T15:16:14;10.20;99.90
15113;DHT22;7657;50.140;7.076;2022-12-20T15:18:41;10.20;99.90
15113;DHT22;7657;50.140;7.076;2022-12-20T15:21:13;10.20;99.90
15113;DHT22;7657;50.140;7.076;2022-12-20T15:23:42;10.20;99.90
15113;DHT22;7657;50.140;7.076;2022-12-20T15:26:14;10.20;99.90
15113;DHT22;7657;50.140;7.076;2022-12-20T15:28:41;10.10;99.90
15113;DHT22;7657;50.140;7.076;2022-12-20T15:31:09;10.10;99.90
15113;DHT22;7657;50.140;7.076;2022-12-20T15:33:38;10.20;99.90
15113;DHT22;7657;50.140;7.076;2022-12-20T15:36:05;10.10;99.90
15113;DHT22;7657;50.140;7.076;2022-12-20T15:38:34;10.10;99.90
15113;DHT22;7657;50.140;7.076;2022-12-20T15:41:03;10.10;99.90
15113;DHT22;7657;50.140;7.076;2022-12-20T15:43:33;10.10;99.90
15113;DHT22;7657;50.140;7.076;2022-12-20T15:46:00;10.00;99.90
15113;DHT22;7657;50.140;7.076;2022-12-20T15:48:27;9.90;99.90
15113;DHT22;7657;50.140;7.076;2022-12-20T15:50:55;9.90;99.90
15113;DHT22;7657;50.140;7.076;2022-12-20T15:53:26;9.90;99.90
15113;DHT22;7657;50.140;7.076;2022-12-20T15:55:55;9.90;99.90
15113;DHT22;7657;50.140;7.076;2022-12-20T15:58:22;9.90;99.90
15113;DHT22;7657;50.140;7.076;2022-12-20T16:00:50;9.90;99.90
15113;DHT22;7657;50.140;7.076;2022-12-20T16:03:21;9.90;99.90
15113;DHT22;7657;50.140;7.076;2022-12-20T16:05:48;9.90;99.90
15113;DHT22;7657;50.140;7.076;2022-12-20T16:08:15;9.90;99.90
15113;DHT22;7657;50.140;7.076;2022-12-20T16:10:43;9.80;99.90
15113;DHT22;7657;50.140;7.076;2022-12-20T16:13:19;9.80;99.90
15113;DHT22;7657;50.140;7.076;2022-12-20T16:15:46;9.80;99.90
15113;DHT22;7657;50.140;7.076;2022-12-20T16:18:14;9.70;99.90
15113;DHT22;7657;50.140;7.076;2022-12-20T16:20:42;9.70;99.90
15113;DHT22;7657;50.140;7.076;2022-12-20T16:23:15;9.60;99.90
15113;DHT22;7657;50.140;7.076;2022-12-20T16:25:42;9.60;99.90
15113;DHT22;7657;50.140;7.076;2022-12-20T16:28:10;9.60;99.90
15113;DHT22;7657;50.140;7.076;2022-12-20T16:30:38;9.60;99.90